createdAt,value
2023-03-10T00:00:18.570Z,16.65
2023-03-10T00:03:04.446Z,14.35
2023-03-10T00:05:49.956Z,14.38
2023-03-10T00:08:35.461Z,15.40
2023-03-10T00:11:21.021Z,16.17
2023-03-10T00:14:06.705Z,14.98
2023-03-10T00:16:52.145Z,17.27
2023-03-10T00:19:37.401Z,17.33
2023-03-10T00:22:23.301Z,15.48
2023-03-10T00:25:09.635Z,16.55
2023-03-10T00:27:54.902Z,16.40
2023-03-10T00:30:41.312Z,16.20
2023-03-10T00:33:26.931Z,16.45
2023-03-10T00:36:21.259Z,18.45
2023-03-10T00:39:08.502Z,15.35
2023-03-10T00:41:55.575Z,16.90
2023-03-10T00:44:41.284Z,17.05
2023-03-10T00:47:26.628Z,15.48
2023-03-10T00:50:13.331Z,15.40
2023-03-10T00:52:58.633Z,15.48
2023-03-10T00:55:44.569Z,19.00
2023-03-10T00:58:31.571Z,17.52
2023-03-10T01:01:26.258Z,16.40
2023-03-10T01:04:18.722Z,15.98
2023-03-10T01:07:03.986Z,16.40
2023-03-10T01:09:52.126Z,16.67
2023-03-10T01:12:37.510Z,17.30
2023-03-10T01:15:23.396Z,17.83
2023-03-10T01:18:08.893Z,19.38
2023-03-10T01:20:54.182Z,15.90
2023-03-10T01:23:39.619Z,15.93
2023-03-10T01:26:25.186Z,16.63
2023-03-10T01:29:10.517Z,16.42
2023-03-10T01:31:56.268Z,15.82
2023-03-10T01:34:41.722Z,17.60
2023-03-10T01:37:27.180Z,17.45
2023-03-10T01:40:16.340Z,16.13
2023-03-10T01:43:19.976Z,17.10
2023-03-10T01:46:28.214Z,16.65
2023-03-10T01:49:36.208Z,19.58
2023-03-10T01:52:25.174Z,16.05
2023-03-10T01:55:25.118Z,20.08
2023-03-10T01:58:10.898Z,16.98
2023-03-10T02:00:56.118Z,17.48
2023-03-10T02:03:52.212Z,16.45
2023-03-10T02:06:41.638Z,16.88
2023-03-10T02:09:27.597Z,19.42
2023-03-10T02:12:13.388Z,20.33
2023-03-10T02:14:58.732Z,18.30
2023-03-10T02:17:44.569Z,17.35
2023-03-10T02:20:43.738Z,17.58
2023-03-10T02:23:58.826Z,16.75
2023-03-10T02:27:01.095Z,16.15
2023-03-10T02:30:02.028Z,16.92
2023-03-10T02:32:58.894Z,17.00
2023-03-10T02:35:46.063Z,18.13
2023-03-10T02:38:35.957Z,16.08
2023-03-10T02:41:31.807Z,14.95
2023-03-10T02:44:20.844Z,15.48
2023-03-10T02:47:07.072Z,15.35
2023-03-10T02:49:52.582Z,16.13
2023-03-10T02:52:50.373Z,15.43
2023-03-10T02:55:35.688Z,15.45
2023-03-10T02:58:23.078Z,15.32
2023-03-10T03:01:08.623Z,15.85
2023-03-10T03:03:58.803Z,15.80
2023-03-10T03:06:45.173Z,13.90
2023-03-10T03:09:30.649Z,14.13
2023-03-10T03:12:16.939Z,13.38
2023-03-10T03:15:02.388Z,16.60
2023-03-10T03:17:47.965Z,15.27
2023-03-10T03:20:33.712Z,15.27
2023-03-10T03:23:20.140Z,14.23
2023-03-10T03:26:13.343Z,15.23
2023-03-10T03:28:59.282Z,16.85
2023-03-10T03:31:48.826Z,16.60
2023-03-10T03:34:38.212Z,17.60
2023-03-10T03:37:25.641Z,18.80
2023-03-10T03:40:13.179Z,15.80
2023-03-10T03:43:01.457Z,16.25
2023-03-10T03:45:46.961Z,18.70
2023-03-10T03:48:34.685Z,15.68
2023-03-10T03:51:22.268Z,15.40
2023-03-10T03:54:07.770Z,16.00
2023-03-10T03:56:55.196Z,14.18
2023-03-10T03:59:40.511Z,14.20
2023-03-10T04:02:26.133Z,14.43
2023-03-10T04:05:12.186Z,14.95
2023-03-10T04:07:57.263Z,15.60
2023-03-10T04:10:49.839Z,13.55
2023-03-10T04:13:35.805Z,13.13
2023-03-10T04:16:21.385Z,13.85
2023-03-10T04:19:07.866Z,16.15
2023-03-10T04:21:56.421Z,12.70
2023-03-10T04:24:42.317Z,13.80
2023-03-10T04:27:27.913Z,13.20
2023-03-10T04:30:14.941Z,12.55
2023-03-10T04:33:04.439Z,12.60
2023-03-10T04:35:52.682Z,12.98
2023-03-10T04:38:40.206Z,12.65
2023-03-10T04:41:28.370Z,14.80
2023-03-10T04:44:29.781Z,12.18
2023-03-10T04:47:16.209Z,12.52
2023-03-10T04:50:02.525Z,12.88
2023-03-10T04:52:50.117Z,11.55
2023-03-10T04:55:38.301Z,11.40
2023-03-10T04:58:24.593Z,13.32
2023-03-10T05:01:11.299Z,12.40
2023-03-10T05:04:01.570Z,11.77
2023-03-10T05:06:50.832Z,11.85
2023-03-10T05:09:42.557Z,12.32
2023-03-10T05:12:28.399Z,10.82
2023-03-10T05:15:14.510Z,12.57
2023-03-10T05:18:00.171Z,12.05
2023-03-10T05:20:45.754Z,10.10
2023-03-10T05:23:31.424Z,10.30
2023-03-10T05:26:17.413Z,11.85
2023-03-10T05:29:03.062Z,12.30
2023-03-10T05:32:06.792Z,11.85
2023-03-10T05:34:55.850Z,10.23
2023-03-10T05:37:43.341Z,11.07
2023-03-10T05:40:29.050Z,12.00
2023-03-10T05:43:17.557Z,10.80
2023-03-10T05:46:04.632Z,12.15
2023-03-10T05:48:53.846Z,12.18
2023-03-10T05:51:39.638Z,10.68
2023-03-10T05:54:25.653Z,12.60
2023-03-10T05:57:13.532Z,12.23
2023-03-10T06:00:00.286Z,10.77
2023-03-10T06:02:45.686Z,11.20
2023-03-10T06:05:31.054Z,11.23
2023-03-10T06:08:16.967Z,11.35
2023-03-10T06:11:02.499Z,11.00
2023-03-10T06:13:47.869Z,10.63
2023-03-10T06:16:33.396Z,11.80
2023-03-10T06:19:19.190Z,10.75
2023-03-10T06:22:04.542Z,12.05
2023-03-10T06:24:49.881Z,11.35
2023-03-10T06:27:35.475Z,11.48
2023-03-10T06:30:21.028Z,10.50
2023-03-10T06:33:06.146Z,10.07
2023-03-10T06:35:51.848Z,10.50
2023-03-10T06:38:37.985Z,10.18
2023-03-10T06:41:23.342Z,11.23
2023-03-10T06:44:09.027Z,9.82
2023-03-10T06:46:54.118Z,11.07
2023-03-10T06:49:39.545Z,8.93
2023-03-10T06:52:24.916Z,11.07
2023-03-10T06:55:13.584Z,10.13
2023-03-10T06:57:59.026Z,11.43
2023-03-10T07:00:44.242Z,11.18
2023-03-10T07:03:29.627Z,9.93
2023-03-10T07:06:15.178Z,12.73
2023-03-10T07:09:00.788Z,11.00
2023-03-10T07:11:46.065Z,11.77
2023-03-10T07:14:31.330Z,11.45
2023-03-10T07:17:18.231Z,12.95
2023-03-10T07:20:04.757Z,12.73
2023-03-10T07:22:50.517Z,13.85
2023-03-10T07:25:37.163Z,11.55
2023-03-10T07:28:23.649Z,13.48
2023-03-10T07:31:11.687Z,11.98
2023-03-10T07:33:56.859Z,13.10
2023-03-10T07:36:42.320Z,12.00
2023-03-10T07:39:27.729Z,12.60
2023-03-10T07:42:13.273Z,14.00
2023-03-10T07:44:58.850Z,14.88
2023-03-10T07:47:43.913Z,14.45
2023-03-10T07:50:29.375Z,13.75
2023-03-10T07:53:14.676Z,14.13
2023-03-10T07:56:03.446Z,14.13
2023-03-10T07:58:49.199Z,13.40
2023-03-10T08:01:34.546Z,15.55
2023-03-10T08:04:19.842Z,13.63
2023-03-10T08:07:05.246Z,14.52
2023-03-10T08:09:51.556Z,12.80
2023-03-10T08:12:36.816Z,14.63
2023-03-10T08:15:21.961Z,13.52
2023-03-10T08:18:08.045Z,14.68
2023-03-10T08:20:53.356Z,13.13
2023-03-10T08:23:39.468Z,13.23
2023-03-10T08:26:25.295Z,14.50
2023-03-10T08:29:10.568Z,12.32
2023-03-10T08:31:56.128Z,12.57
2023-03-10T08:34:43.094Z,11.80
2023-03-10T08:37:28.633Z,11.23
2023-03-10T08:40:16.113Z,12.55
2023-03-10T08:43:01.545Z,11.13
2023-03-10T08:45:46.963Z,10.32
2023-03-10T08:48:32.580Z,12.30
2023-03-10T08:51:18.396Z,9.23
2023-03-10T08:54:04.238Z,9.77
2023-03-10T08:56:49.812Z,10.00
2023-03-10T08:59:35.358Z,9.73
2023-03-10T09:02:22.154Z,8.43
2023-03-10T09:05:08.026Z,8.75
2023-03-10T09:07:53.541Z,8.02
2023-03-10T09:10:40.354Z,7.57
2023-03-10T09:13:25.867Z,7.20
2023-03-10T09:16:11.704Z,7.30
2023-03-10T09:18:58.159Z,7.25
2023-03-10T09:21:43.828Z,7.45
2023-03-10T09:24:29.257Z,7.45
2023-03-10T09:27:14.562Z,6.45
2023-03-10T09:30:01.966Z,6.72
2023-03-10T09:32:47.561Z,7.25
2023-03-10T09:35:33.244Z,7.90
2023-03-10T09:38:18.559Z,7.68
2023-03-10T09:41:47.562Z,7.78
2023-03-10T09:45:04.215Z,9.05
2023-03-10T09:48:13.542Z,8.23
2023-03-10T09:51:01.229Z,7.28
2023-03-10T09:54:04.026Z,6.35
2023-03-10T09:56:49.128Z,7.35
2023-03-10T09:59:39.048Z,6.30
2023-03-10T10:02:34.165Z,8.07
2023-03-10T10:05:31.302Z,7.13
2023-03-10T10:08:29.407Z,8.70
2023-03-10T10:11:17.099Z,11.68
2023-03-10T10:14:30.569Z,13.32
2023-03-10T10:17:58.531Z,12.35
2023-03-10T10:20:53.699Z,13.60
2023-03-10T10:23:49.705Z,14.05
2023-03-10T10:26:35.217Z,15.75
2023-03-10T10:29:26.980Z,11.82
2023-03-10T10:32:14.651Z,14.13
2023-03-10T10:35:14.726Z,13.38
2023-03-10T10:38:06.015Z,13.35
2023-03-10T10:40:59.959Z,14.93
2023-03-10T10:43:45.963Z,16.50
2023-03-10T10:46:32.667Z,14.52
2023-03-10T10:49:27.171Z,15.20
2023-03-10T10:52:24.647Z,16.92
2023-03-10T10:55:26.281Z,19.42
2023-03-10T10:58:28.680Z,16.08
2023-03-10T11:01:17.002Z,18.08
2023-03-10T11:04:08.158Z,16.42
2023-03-10T11:07:07.497Z,16.80
2023-03-10T11:09:56.419Z,13.27
2023-03-10T11:13:05.615Z,16.33
2023-03-10T11:16:24.455Z,14.98
2023-03-10T11:19:21.715Z,17.75
2023-03-10T11:22:43.543Z,15.05
2023-03-10T11:25:50.201Z,15.90
2023-03-10T11:28:49.072Z,13.25
2023-03-10T11:31:40.185Z,17.88
2023-03-10T11:34:31.836Z,15.23
2023-03-10T11:37:39.350Z,16.98
2023-03-10T11:40:43.174Z,14.77
2023-03-10T11:44:07.908Z,14.70
2023-03-10T11:47:15.908Z,15.02
2023-03-10T11:50:17.822Z,16.30
2023-03-10T11:53:31.771Z,16.38
2023-03-10T11:56:20.640Z,14.45
2023-03-10T11:59:24.044Z,13.00
2023-03-10T12:02:16.395Z,13.05
2023-03-10T12:05:21.395Z,13.95
2023-03-10T12:08:07.314Z,11.18
2023-03-10T12:10:55.006Z,14.32
2023-03-10T12:13:48.069Z,13.57
2023-03-10T12:16:37.756Z,12.70
2023-03-10T12:19:25.951Z,13.82
2023-03-10T12:22:25.176Z,14.70
2023-03-10T12:25:29.068Z,14.25
2023-03-10T12:28:17.704Z,17.45
2023-03-10T12:31:07.530Z,20.83
2023-03-10T12:33:53.254Z,19.83
2023-03-10T12:36:41.671Z,22.00
2023-03-10T12:39:43.891Z,15.43
2023-03-10T12:42:34.025Z,15.80
2023-03-10T12:45:28.560Z,16.60
2023-03-10T12:48:19.626Z,18.55
2023-03-10T12:51:12.819Z,18.27
2023-03-10T12:54:17.597Z,17.50
2023-03-10T12:57:12.362Z,15.38
2023-03-10T13:00:10.580Z,22.45
2023-03-10T13:03:05.486Z,17.92
2023-03-10T13:06:20.866Z,18.00
2023-03-10T13:09:38.847Z,17.60
2023-03-10T13:12:32.549Z,18.55
2023-03-10T13:15:25.013Z,18.85
2023-03-10T13:18:16.378Z,20.35
2023-03-10T13:21:01.792Z,21.13
2023-03-10T13:23:47.109Z,24.10
2023-03-10T13:26:32.474Z,21.33
2023-03-10T13:29:19.923Z,24.27
2023-03-10T13:32:06.091Z,22.10
2023-03-10T13:34:52.373Z,24.65
2023-03-10T13:37:37.584Z,26.13
2023-03-10T13:40:23.088Z,27.33
2023-03-10T13:43:31.176Z,25.00
2023-03-10T13:46:25.019Z,23.58
2023-03-10T13:49:15.605Z,22.33
2023-03-10T13:52:06.479Z,18.58
2023-03-10T13:54:52.419Z,15.98
2023-03-10T13:57:39.606Z,15.32
2023-03-10T14:00:26.423Z,16.35
2023-03-10T14:03:12.949Z,13.07
2023-03-10T14:05:58.449Z,12.00
2023-03-10T14:08:43.970Z,11.93
2023-03-10T14:11:42.487Z,14.18
2023-03-10T14:14:31.230Z,11.63
2023-03-10T14:17:38.604Z,12.60
2023-03-10T14:20:35.632Z,14.70
2023-03-10T14:23:26.904Z,14.00
2023-03-10T14:26:16.459Z,14.55
2023-03-10T14:29:06.042Z,13.77
2023-03-10T14:31:52.039Z,14.88
2023-03-10T14:34:37.305Z,13.95
2023-03-10T14:37:23.824Z,14.55
2023-03-10T14:40:10.739Z,13.60
2023-03-10T14:43:00.500Z,11.30
2023-03-10T14:45:47.148Z,11.40
2023-03-10T14:48:39.782Z,10.55
2023-03-10T14:51:35.051Z,10.82
2023-03-10T14:54:26.084Z,13.50
2023-03-10T14:57:14.977Z,11.07
2023-03-10T15:00:00.247Z,13.10
2023-03-10T15:02:46.427Z,15.15
2023-03-10T15:05:47.399Z,11.23
2023-03-10T15:08:34.124Z,16.77
2023-03-10T15:11:35.677Z,9.63
2023-03-10T15:14:22.066Z,11.80
2023-03-10T15:17:07.890Z,11.82
2023-03-10T15:19:53.228Z,12.73
2023-03-10T15:22:38.763Z,13.07
2023-03-10T15:25:24.488Z,12.68
2023-03-10T15:28:10.474Z,14.05
2023-03-10T15:30:56.016Z,15.02
2023-03-10T15:33:41.345Z,10.82
2023-03-10T15:36:26.860Z,8.73
2023-03-10T15:39:18.838Z,7.03
2023-03-10T15:42:11.003Z,6.97
2023-03-10T15:44:56.545Z,8.80
2023-03-10T15:47:42.294Z,4.60
2023-03-10T15:50:27.903Z,6.13
2023-03-10T15:53:13.275Z,5.90
2023-03-10T15:55:58.439Z,6.30
2023-03-10T15:58:44.023Z,5.65
2023-03-10T16:01:29.348Z,4.82
2023-03-10T16:04:16.265Z,8.02
2023-03-10T16:07:05.041Z,4.93
2023-03-10T16:09:50.584Z,4.03
2023-03-10T16:12:36.165Z,10.00
2023-03-10T16:15:21.481Z,5.32
2023-03-10T16:18:07.131Z,6.78
2023-03-10T16:21:00.082Z,6.55
2023-03-10T16:23:45.944Z,3.83
2023-03-10T16:26:31.284Z,4.25
2023-03-10T16:29:17.192Z,5.88
2023-03-10T16:32:02.779Z,4.18
2023-03-10T16:34:48.046Z,5.03
2023-03-10T16:37:33.579Z,3.45
2023-03-10T16:40:19.303Z,2.35
2023-03-10T16:43:06.458Z,2.25
2023-03-10T16:45:51.829Z,4.45
2023-03-10T16:48:44.182Z,4.25
2023-03-10T16:51:38.563Z,1.75
2023-03-10T16:54:23.834Z,3.65
2023-03-10T16:57:09.303Z,3.42
2023-03-10T16:59:54.823Z,4.28
2023-03-10T17:02:40.071Z,3.00
2023-03-10T17:05:25.635Z,3.47
2023-03-10T17:08:11.112Z,2.60
2023-03-10T17:10:56.674Z,4.07
2023-03-10T17:13:46.070Z,3.17
2023-03-10T17:16:32.521Z,4.80
2023-03-10T17:19:22.494Z,3.97
2023-03-10T17:22:07.963Z,4.95
2023-03-10T17:24:58.089Z,3.47
2023-03-10T17:27:43.817Z,3.70
2023-03-10T17:30:29.495Z,3.10
2023-03-10T17:33:14.860Z,4.60
2023-03-10T17:36:07.907Z,4.30
2023-03-10T17:41:39.188Z,3.85
2023-03-10T17:44:24.752Z,8.77
2023-03-10T17:47:10.216Z,6.78
2023-03-10T17:49:59.652Z,9.50
2023-03-10T17:52:47.546Z,12.35
2023-03-10T17:55:35.409Z,7.55
2023-03-10T17:58:20.980Z,8.75
2023-03-10T18:01:11.809Z,9.77
2023-03-10T18:03:59.532Z,17.58
2023-03-10T18:06:44.907Z,10.60
2023-03-10T18:09:30.359Z,13.63
2023-03-10T18:12:16.255Z,11.05
2023-03-10T18:15:01.599Z,13.25
2023-03-10T18:17:46.844Z,7.25
2023-03-10T18:20:32.239Z,10.88
2023-03-10T18:23:20.553Z,17.08
2023-03-10T18:26:07.770Z,10.40
2023-03-10T18:28:52.804Z,8.43
2023-03-10T18:31:38.343Z,9.75
2023-03-10T18:34:23.671Z,12.40
2023-03-10T18:37:09.197Z,14.88
2023-03-10T18:39:55.090Z,17.95
2023-03-10T18:42:40.381Z,12.55
2023-03-10T18:45:26.108Z,9.38
2023-03-10T18:48:11.541Z,10.93
2023-03-10T18:50:58.735Z,12.68
2023-03-10T18:53:45.133Z,8.55
2023-03-10T18:56:31.394Z,9.13
2023-03-10T18:59:18.826Z,11.07
2023-03-10T19:02:05.531Z,14.38
2023-03-10T19:04:50.612Z,10.60
2023-03-10T19:07:37.120Z,8.75
2023-03-10T19:10:22.398Z,6.28
2023-03-10T19:13:08.076Z,6.25
2023-03-10T19:15:53.890Z,8.63
2023-03-10T19:18:40.256Z,7.80
2023-03-10T19:21:25.802Z,8.30
2023-03-10T19:24:11.121Z,9.68
2023-03-10T19:26:56.586Z,9.95
2023-03-10T19:29:42.211Z,12.73
2023-03-10T19:32:28.129Z,7.53
2023-03-10T19:35:14.016Z,10.63
2023-03-10T19:38:00.319Z,10.45
2023-03-10T19:40:46.948Z,9.90
2023-03-10T19:43:32.587Z,11.25
2023-03-10T19:46:19.227Z,10.25
2023-03-10T19:49:06.556Z,12.80
2023-03-10T19:51:52.274Z,10.98
2023-03-10T19:54:38.181Z,9.35
2023-03-10T19:57:23.591Z,10.30
2023-03-10T20:00:13.668Z,10.85
2023-03-10T20:02:59.553Z,7.18
2023-03-10T20:05:47.326Z,11.38
2023-03-10T20:08:34.006Z,12.23
2023-03-10T20:11:19.917Z,9.35
2023-03-10T20:14:05.762Z,10.65
2023-03-10T20:16:53.003Z,19.83
2023-03-10T20:19:40.605Z,13.30
2023-03-10T20:22:25.689Z,10.88
2023-03-10T20:25:14.663Z,13.20
2023-03-10T20:28:00.271Z,15.93
2023-03-10T20:30:46.857Z,11.95
2023-03-10T20:33:32.145Z,9.13
2023-03-10T20:36:17.859Z,13.45
2023-03-10T20:39:03.114Z,12.02
2023-03-10T20:41:49.891Z,8.63
2023-03-10T20:44:37.646Z,11.82
2023-03-10T20:47:22.826Z,6.90
2023-03-10T20:50:10.823Z,7.03
2023-03-10T20:52:56.398Z,10.75
2023-03-10T20:55:42.028Z,9.43
2023-03-10T20:58:27.675Z,11.57
2023-03-10T21:01:21.386Z,6.00
2023-03-10T21:04:06.879Z,9.15
2023-03-10T21:06:52.332Z,5.47
2023-03-10T21:09:37.622Z,8.15
2023-03-10T21:12:23.224Z,8.77
2023-03-10T21:15:10.729Z,8.38
2023-03-10T21:17:56.828Z,7.97
2023-03-10T21:20:42.352Z,7.55
2023-03-10T21:23:27.638Z,7.45
2023-03-10T21:26:16.068Z,6.97
2023-03-10T21:29:01.931Z,9.90
2023-03-10T21:31:47.105Z,8.40
2023-03-10T21:34:32.595Z,7.32
2023-03-10T21:37:18.914Z,13.85
2023-03-10T21:40:05.428Z,7.47
2023-03-10T21:42:50.775Z,6.28
2023-03-10T21:45:37.353Z,15.50
2023-03-10T21:48:22.380Z,7.22
2023-03-10T21:51:09.698Z,10.48
2023-03-10T21:53:55.609Z,4.47
2023-03-10T21:56:40.909Z,6.00
2023-03-10T21:59:26.778Z,6.32
2023-03-10T22:02:29.443Z,6.28
2023-03-10T22:08:01.766Z,6.72
2023-03-10T22:10:46.988Z,6.25
2023-03-10T22:13:33.527Z,6.38
2023-03-10T22:16:18.926Z,9.35
2023-03-10T22:19:04.600Z,4.70
2023-03-10T22:21:51.332Z,5.25
2023-03-10T22:24:36.699Z,6.85
2023-03-10T22:27:22.108Z,6.47
2023-03-10T22:30:09.089Z,6.38
2023-03-10T22:32:55.379Z,6.53
2023-03-10T22:35:40.884Z,6.60
2023-03-10T22:38:26.224Z,7.68
2023-03-10T22:41:12.227Z,7.70
2023-03-10T22:43:57.747Z,4.97
2023-03-10T22:46:44.993Z,5.63
2023-03-10T22:49:30.568Z,5.80
2023-03-10T22:52:16.157Z,5.07
2023-03-10T22:55:01.526Z,9.13
2023-03-10T22:57:47.082Z,9.73
2023-03-10T23:00:33.315Z,6.35
2023-03-10T23:03:18.600Z,8.77
2023-03-10T23:06:07.591Z,5.10
2023-03-10T23:08:53.061Z,5.00
2023-03-10T23:11:38.621Z,5.55
2023-03-10T23:14:24.184Z,5.57
2023-03-10T23:17:09.746Z,5.72
2023-03-10T23:19:56.825Z,7.72
2023-03-10T23:22:43.830Z,4.63
2023-03-10T23:25:30.978Z,5.63
2023-03-10T23:28:18.490Z,6.75
2023-03-10T23:31:04.530Z,7.20
2023-03-10T23:33:50.609Z,16.55
2023-03-10T23:36:36.134Z,9.52
2023-03-10T23:39:21.801Z,5.03
2023-03-10T23:42:07.779Z,4.38
2023-03-10T23:44:53.281Z,8.45
2023-03-10T23:47:39.583Z,5.85
2023-03-10T23:50:27.436Z,3.38
2023-03-10T23:53:14.241Z,5.32
2023-03-10T23:56:00.113Z,2.85
2023-03-10T23:58:45.773Z,5.68
